Time;durP1;ratioP1;P1;durP2;ratioP2;P2;SDS_P1;SDS_P2;PMS_P1;PMS_P2;Temp;Humidity;BMP_temperature;BMP_pressure;BME280_temperature;BME280_humidity;BME280_pressure;Samples;Min_cycle;Max_cycle;Signal;HPM_P1;HPM_P2
2022/03/08 00:01:34;;;;;;;12.40;8.43;;;5.70;66.00;;;;;;5021508;28;20178;-90
2022/03/08 00:04:00;;;;;;;11.43;8.00;;;5.50;66.80;;;;;;5013585;28;20661;-90
2022/03/08 00:06:26;;;;;;;11.70;7.93;;;5.50;66.90;;;;;;5013026;28;20267;-90
2022/03/08 00:08:52;;;;;;;10.53;7.47;;;5.50;67.30;;;;;;5022789;28;20196;-90
2022/03/08 00:11:17;;;;;;;13.03;8.80;;;5.50;67.10;;;;;;5032005;28;20167;-90
2022/03/08 00:13:45;;;;;;;11.80;8.10;;;5.40;66.70;;;;;;5032272;28;20166;-90
2022/03/08 00:16:11;;;;;;;10.17;8.00;;;5.40;67.10;;;;;;5030770;28;20200;-89
2022/03/08 00:18:38;;;;;;;11.90;7.97;;;5.40;67.70;;;;;;5032261;28;20163;-90
2022/03/08 00:21:05;;;;;;;10.47;7.17;;;5.50;67.20;;;;;;5032495;28;20210;-91
2022/03/08 00:23:32;;;;;;;11.20;8.13;;;5.40;67.10;;;;;;5031775;28;20281;-90
2022/03/08 00:26:00;;;;;;;10.27;7.67;;;5.40;67.10;;;;;;5031914;28;20264;-90
2022/03/08 00:28:26;;;;;;;10.53;8.20;;;5.20;67.40;;;;;;5018740;28;20173;-90
2022/03/08 00:30:52;;;;;;;12.50;7.47;;;5.20;67.80;;;;;;5018713;28;20169;-91
2022/03/08 00:33:18;;;;;;;13.47;8.03;;;5.20;67.80;;;;;;5032170;28;20634;-90
2022/03/08 00:35:44;;;;;;;10.60;7.60;;;5.20;67.80;;;;;;5032196;28;20574;-91
2022/03/08 00:38:09;;;;;;;13.23;7.67;;;5.20;67.90;;;;;;5032053;28;20173;-90
2022/03/08 00:40:35;;;;;;;11.27;8.13;;;5.20;67.90;;;;;;5037029;28;20172;-91
2022/03/08 00:43:01;;;;;;;10.70;8.10;;;5.20;68.00;;;;;;5012459;28;20224;-90
2022/03/08 00:45:27;;;;;;;11.90;8.10;;;5.20;68.00;;;;;;5015071;28;20537;-91
2022/03/08 00:47:54;;;;;;;11.97;8.40;;;5.10;68.20;;;;;;5021507;28;20269;-91
2022/03/08 00:50:22;;;;;;;12.17;8.47;;;5.10;68.50;;;;;;5035980;28;20166;-90
2022/03/08 00:52:49;;;;;;;10.43;8.40;;;5.10;68.30;;;;;;5027258;28;20193;-83
2022/03/08 00:55:17;;;;;;;12.43;8.30;;;4.90;69.40;;;;;;5023014;28;20706;-84
2022/03/08 00:57:43;;;;;;;12.77;8.60;;;4.90;69.20;;;;;;5024456;28;20189;-83
2022/03/08 01:00:13;;;;;;;15.67;9.00;;;4.80;69.90;;;;;;5026107;28;20700;-83
2022/03/08 01:02:38;;;;;;;10.60;7.40;;;4.80;69.00;;;;;;5025908;28;20213;-83
2022/03/08 01:05:05;;;;;;;10.87;7.50;;;4.80;69.40;;;;;;5015856;28;20548;-82
2022/03/08 01:07:31;;;;;;;12.67;7.90;;;4.90;69.10;;;;;;5017739;28;20178;-82
2022/03/08 01:09:57;;;;;;;12.83;8.37;;;5.00;68.40;;;;;;5017200;28;20749;-82
2022/03/08 01:12:23;;;;;;;15.17;8.43;;;5.10;68.40;;;;;;5014221;28;20181;-83
2022/03/08 01:14:49;;;;;;;12.47;8.07;;;5.00;68.50;;;;;;5015360;28;20177;-82
2022/03/08 01:17:15;;;;;;;17.23;9.53;;;5.00;68.70;;;;;;5016910;28;20235;-82
2022/03/08 01:19:42;;;;;;;12.80;8.80;;;4.90;68.80;;;;;;5020573;28;20181;-83
2022/03/08 01:22:07;;;;;;;11.80;8.00;;;4.80;69.10;;;;;;5026911;28;20212;-83
2022/03/08 01:24:33;;;;;;;13.40;9.00;;;4.90;69.50;;;;;;5021712;28;20588;-83
2022/03/08 01:26:59;;;;;;;12.03;8.70;;;4.70;69.80;;;;;;5014596;28;20166;-83
2022/03/08 01:29:25;;;;;;;11.73;8.43;;;4.60;70.10;;;;;;5014660;28;20162;-83
2022/03/08 01:31:50;;;;;;;15.00;9.10;;;4.90;69.10;;;;;;5014463;28;20650;-83
2022/03/08 01:34:16;;;;;;;12.97;8.53;;;4.80;69.20;;;;;;5014428;28;20185;-83
2022/03/08 01:36:43;;;;;;;12.07;8.37;;;4.80;69.30;;;;;;5014487;28;20192;-82
2022/03/08 01:39:08;;;;;;;13.87;9.10;;;4.60;69.80;;;;;;5014584;28;20176;-83
2022/03/08 01:41:35;;;;;;;16.23;9.43;;;4.40;71.00;;;;;;5014530;28;20804;-83
2022/03/08 01:44:00;;;;;;;11.87;8.60;;;4.40;70.30;;;;;;5014400;28;20272;-83
2022/03/08 01:46:26;;;;;;;13.80;8.70;;;4.20;71.10;;;;;;5013970;28;20171;-84
2022/03/08 01:48:52;;;;;;;14.13;8.60;;;4.30;70.90;;;;;;5014699;28;20205;-83
2022/03/08 01:51:17;;;;;;;13.23;8.07;;;4.50;71.10;;;;;;5014259;28;20257;-84
2022/03/08 01:53:44;;;;;;;13.33;8.70;;;4.40;70.30;;;;;;5014636;28;20173;-84
2022/03/08 01:56:10;;;;;;;13.27;9.00;;;4.50;69.80;;;;;;5013967;28;20231;-83
2022/03/08 01:58:37;;;;;;;10.80;8.30;;;4.40;70.50;;;;;;5014282;28;20220;-83
2022/03/08 02:01:04;;;;;;;13.13;8.90;;;4.40;70.50;;;;;;5014158;28;20236;-84
2022/03/08 02:03:30;;;;;;;13.73;9.07;;;4.30;70.80;;;;;;5014322;28;20222;-83
2022/03/08 02:05:56;;;;;;;15.13;8.53;;;4.40;70.30;;;;;;5014572;28;20253;-83
2022/03/08 02:08:21;;;;;;;13.43;8.20;;;4.40;70.30;;;;;;5013838;28;20170;-83
2022/03/08 02:10:47;;;;;;;13.90;8.40;;;4.40;70.30;;;;;;5014315;28;20706;-83
2022/03/08 02:13:13;;;;;;;14.47;9.03;;;4.40;70.20;;;;;;5014198;28;20539;-82
2022/03/08 02:15:38;;;;;;;12.73;8.33;;;4.20;70.70;;;;;;5013770;28;20166;-83
2022/03/08 02:18:04;;;;;;;15.30;8.77;;;4.20;70.50;;;;;;5014030;28;20166;-83
2022/03/08 02:20:30;;;;;;;13.33;8.30;;;4.20;70.70;;;;;;5014175;28;20202;-84
2022/03/08 02:22:56;;;;;;;13.70;8.00;;;4.10;71.10;;;;;;5013721;28;20363;-85
2022/03/08 02:25:23;;;;;;;11.33;7.73;;;4.10;71.20;;;;;;5014881;28;20163;-83
2022/03/08 02:27:51;;;;;;;13.63;8.67;;;3.90;71.50;;;;;;5013860;28;20170;-82
2022/03/08 02:30:20;;;;;;;14.03;8.93;;;3.90;71.60;;;;;;5013642;28;20886;-83
2022/03/08 02:32:46;;;;;;;12.03;8.63;;;4.10;71.10;;;;;;5013748;28;20251;-83
2022/03/08 02:35:14;;;;;;;11.90;8.90;;;4.10;71.40;;;;;;5013861;28;20606;-84
2022/03/08 02:37:43;;;;;;;15.47;8.20;;;4.00;71.30;;;;;;5018688;28;20297;-82
2022/03/08 02:40:14;;;;;;;13.93;9.33;;;3.80;71.60;;;;;;5013402;28;20166;-83
2022/03/08 02:42:40;;;;;;;12.90;8.50;;;3.80;71.90;;;;;;5013164;28;20234;-83
2022/03/08 02:45:07;;;;;;;11.50;8.17;;;3.90;71.70;;;;;;5013914;28;20175;-82
2022/03/08 02:47:33;;;;;;;13.10;8.90;;;3.90;71.70;;;;;;5025366;28;20211;-83
2022/03/08 02:49:59;;;;;;;14.37;8.40;;;3.90;71.50;;;;;;5013413;28;20169;-83
2022/03/08 02:52:24;;;;;;;11.90;7.97;;;3.80;71.40;;;;;;5014611;28;20232;-83
2022/03/08 02:54:50;;;;;;;11.70;8.43;;;3.70;71.70;;;;;;5013297;28;20174;-83
2022/03/08 02:57:16;;;;;;;15.70;8.60;;;3.60;72.20;;;;;;5013840;28;20198;-83
2022/03/08 02:59:42;;;;;;;12.07;8.47;;;3.70;71.90;;;;;;5013280;28;20180;-82
2022/03/08 03:02:08;;;;;;;13.70;8.67;;;3.80;71.60;;;;;;5013226;28;20213;-83
2022/03/08 03:04:34;;;;;;;15.60;8.27;;;3.80;72.00;;;;;;5013108;28;20193;-83
2022/03/08 03:06:59;;;;;;;13.73;8.67;;;3.60;72.90;;;;;;5012324;28;20180;-84
2022/03/08 03:09:25;;;;;;;12.27;8.37;;;3.60;72.90;;;;;;5012872;28;20197;-83
2022/03/08 03:11:51;;;;;;;13.07;8.10;;;3.50;73.10;;;;;;5012733;28;20268;-84
2022/03/08 03:14:17;;;;;;;11.83;8.20;;;3.40;73.50;;;;;;5012840;28;20173;-83
2022/03/08 03:16:42;;;;;;;11.50;8.40;;;3.50;73.10;;;;;;5022089;28;20197;-82
2022/03/08 03:19:08;;;;;;;14.23;8.90;;;3.50;73.30;;;;;;5024804;28;20184;-83
2022/03/08 03:21:34;;;;;;;12.83;8.67;;;3.50;73.50;;;;;;5032527;28;20173;-83
2022/03/08 03:24:00;;;;;;;12.67;8.03;;;3.50;73.30;;;;;;5032300;28;20214;-83
2022/03/08 03:26:25;;;;;;;14.33;7.80;;;3.40;73.60;;;;;;5032612;28;20260;-84
2022/03/08 03:28:51;;;;;;;12.53;8.40;;;3.30;74.40;;;;;;5032459;28;20174;-83
2022/03/08 03:31:17;;;;;;;10.67;7.77;;;3.20;74.70;;;;;;5033508;28;20176;-83
2022/03/08 03:33:43;;;;;;;12.30;8.50;;;3.20;75.10;;;;;;5033492;28;20641;-83
2022/03/08 03:36:08;;;;;;;12.17;8.30;;;3.30;74.60;;;;;;5032378;28;20189;-83
2022/03/08 03:38:34;;;;;;;12.37;8.13;;;3.40;74.50;;;;;;5032145;28;20260;-82
2022/03/08 03:41:00;;;;;;;14.67;9.23;;;3.50;73.90;;;;;;5032364;28;20673;-83
2022/03/08 03:43:25;;;;;;;14.60;8.63;;;3.30;74.00;;;;;;5031722;28;20212;-85
2022/03/08 03:45:51;;;;;;;11.87;8.23;;;3.40;74.10;;;;;;5031664;28;20194;-86
2022/03/08 03:48:16;;;;;;;14.33;8.77;;;3.50;73.60;;;;;;5032217;28;20184;-83
2022/03/08 03:50:42;;;;;;;11.23;9.00;;;3.50;74.00;;;;;;5031719;28;20165;-83
2022/03/08 03:53:08;;;;;;;12.33;8.67;;;3.30;74.40;;;;;;5031806;28;20239;-83
2022/03/08 03:55:34;;;;;;;12.87;8.20;;;3.10;75.00;;;;;;5031682;28;20812;-82
2022/03/08 03:57:59;;;;;;;11.60;8.30;;;3.00;75.70;;;;;;5031698;28;20729;-83
2022/03/08 04:00:25;;;;;;;13.20;8.70;;;3.00;75.60;;;;;;5031815;28;20177;-82
2022/03/08 04:02:50;;;;;;;11.37;8.57;;;2.90;75.60;;;;;;5032076;28;20224;-83
2022/03/08 04:05:16;;;;;;;14.93;8.23;;;2.90;75.90;;;;;;5031950;28;20625;-82
2022/03/08 04:07:42;;;;;;;14.47;9.60;;;3.00;75.60;;;;;;5031786;28;20184;-82
2022/03/08 04:10:10;;;;;;;14.00;9.30;;;3.00;75.40;;;;;;5031562;28;20613;-82
2022/03/08 04:12:35;;;;;;;10.90;7.80;;;2.90;76.20;;;;;;5031875;28;20173;-82
2022/03/08 04:15:01;;;;;;;14.10;9.00;;;2.70;77.00;;;;;;5032774;28;20255;-85
2022/03/08 04:17:27;;;;;;;13.70;9.17;;;2.60;77.70;;;;;;5031514;28;20165;-84
2022/03/08 04:19:53;;;;;;;12.60;9.03;;;2.60;79.50;;;;;;5031510;28;20178;-84
2022/03/08 04:22:20;;;;;;;13.10;8.70;;;2.50;79.50;;;;;;5031397;28;20207;-85
2022/03/08 04:24:46;;;;;;;11.97;7.53;;;2.50;79.60;;;;;;5031531;28;20176;-84
2022/03/08 04:27:12;;;;;;;12.73;8.27;;;2.60;78.70;;;;;;5031785;28;20176;-84
2022/03/08 04:29:37;;;;;;;13.87;8.30;;;2.60;77.90;;;;;;5031553;28;20176;-84
2022/03/08 04:32:03;;;;;;;10.90;8.07;;;2.50;78.70;;;;;;5031719;28;20215;-84
2022/03/08 04:34:29;;;;;;;11.80;8.33;;;2.50;79.30;;;;;;5031402;28;20172;-85
2022/03/08 04:36:54;;;;;;;14.27;8.70;;;2.40;80.40;;;;;;5032661;28;20282;-84
2022/03/08 04:39:20;;;;;;;14.27;8.67;;;2.40;80.90;;;;;;5031384;28;20176;-84
2022/03/08 04:41:46;;;;;;;18.07;9.10;;;2.40;80.90;;;;;;5031286;28;20639;-84
2022/03/08 04:44:11;;;;;;;21.27;8.97;;;2.30;80.80;;;;;;5031560;28;20227;-84
2022/03/08 04:46:37;;;;;;;17.57;10.13;;;2.40;80.40;;;;;;5031552;28;20639;-84
2022/03/08 04:49:03;;;;;;;19.67;9.50;;;2.40;80.60;;;;;;5031514;28;20176;-84
2022/03/08 04:51:28;;;;;;;22.17;9.03;;;2.30;80.90;;;;;;5031561;28;20173;-84
2022/03/08 04:53:54;;;;;;;15.90;9.23;;;2.40;80.40;;;;;;5031829;28;20617;-83
2022/03/08 04:56:20;;;;;;;15.93;9.23;;;2.50;80.20;;;;;;5031331;28;20263;-83
2022/03/08 04:58:46;;;;;;;18.63;9.20;;;2.50;79.80;;;;;;5031617;28;20663;-84
2022/03/08 05:01:13;;;;;;;20.50;9.17;;;2.40;80.30;;;;;;5031260;28;20177;-84
2022/03/08 05:03:38;;;;;;;17.40;8.97;;;2.30;81.00;;;;;;5031401;28;20208;-84
2022/03/08 05:06:07;;;;;;;17.37;10.10;;;2.30;81.60;;;;;;5032002;28;20234;-83
2022/03/08 05:08:32;;;;;;;20.10;9.93;;;2.30;82.20;;;;;;5031413;28;20165;-84
2022/03/08 05:10:58;;;;;;;16.00;9.00;;;2.30;82.20;;;;;;5031104;28;20613;-84
2022/03/08 05:13:24;;;;;;;16.90;9.07;;;2.10;82.20;;;;;;5031335;28;20173;-84
2022/03/08 05:15:50;;;;;;;15.03;9.10;;;2.10;82.90;;;;;;5031082;28;20161;-84
2022/03/08 05:18:16;;;;;;;14.53;9.20;;;2.00;83.20;;;;;;5031040;28;20664;-84
2022/03/08 05:20:42;;;;;;;14.70;9.83;;;1.90;83.30;;;;;;5030878;28;20169;-84
2022/03/08 05:23:08;;;;;;;17.23;9.73;;;2.00;83.80;;;;;;5030901;28;20549;-83
2022/03/08 05:25:34;;;;;;;17.17;9.87;;;2.00;84.20;;;;;;5032030;28;20256;-84
2022/03/08 05:27:59;;;;;;;18.20;8.80;;;2.10;84.00;;;;;;5030941;28;20701;-84
2022/03/08 05:30:25;;;;;;;14.37;8.93;;;2.00;84.40;;;;;;5032839;28;20171;-84
2022/03/08 05:32:51;;;;;;;12.37;8.63;;;1.80;85.10;;;;;;5033604;28;20176;-84
2022/03/08 05:35:16;;;;;;;18.70;9.83;;;1.80;85.60;;;;;;5034797;28;20192;-83
2022/03/08 05:37:42;;;;;;;14.87;9.53;;;1.70;84.80;;;;;;5035835;28;20256;-84
2022/03/08 05:40:08;;;;;;;15.87;9.37;;;1.70;85.00;;;;;;5034088;28;20731;-83
2022/03/08 05:42:34;;;;;;;12.53;8.83;;;1.70;85.30;;;;;;5034329;28;20209;-84
2022/03/08 05:45:00;;;;;;;18.67;9.27;;;1.70;85.30;;;;;;5034434;28;20199;-83
2022/03/08 05:47:25;;;;;;;14.83;9.60;;;1.80;85.70;;;;;;5034364;28;20519;-84
2022/03/08 05:49:51;;;;;;;18.77;9.33;;;1.80;85.40;;;;;;5034216;28;20172;-84
2022/03/08 05:52:16;;;;;;;17.00;9.20;;;1.80;85.90;;;;;;5035280;28;20175;-83
2022/03/08 05:54:42;;;;;;;15.40;9.40;;;1.90;85.20;;;;;;5034446;28;20542;-85
2022/03/08 05:57:08;;;;;;;15.00;9.43;;;1.70;86.40;;;;;;5034071;28;20176;-84
2022/03/08 05:59:33;;;;;;;16.30;9.27;;;1.80;86.40;;;;;;5035421;28;20246;-84
2022/03/08 06:02:00;;;;;;;17.97;8.80;;;1.70;86.30;;;;;;5033841;28;20193;-84
2022/03/08 06:04:26;;;;;;;16.03;8.83;;;1.70;86.70;;;;;;5033871;28;20615;-84
2022/03/08 06:06:54;;;;;;;13.53;9.17;;;1.70;86.50;;;;;;5034005;28;20255;-84
2022/03/08 06:09:19;;;;;;;15.40;9.33;;;1.70;87.30;;;;;;5034280;28;20176;-83
2022/03/08 06:11:45;;;;;;;12.57;8.40;;;1.70;87.70;;;;;;5033829;28;20176;-84
2022/03/08 06:14:10;;;;;;;18.00;9.27;;;1.70;88.50;;;;;;5034100;28;20264;-84
2022/03/08 06:16:36;;;;;;;15.77;8.63;;;1.60;88.20;;;;;;5028886;28;20184;-84
2022/03/08 06:19:02;;;;;;;13.93;9.00;;;1.60;88.80;;;;;;5019789;28;20655;-84
2022/03/08 06:21:27;;;;;;;13.87;9.07;;;1.50;89.60;;;;;;5013985;28;20177;-84
2022/03/08 06:23:53;;;;;;;12.83;8.77;;;1.50;89.30;;;;;;5013854;28;20217;-83
2022/03/08 06:26:18;;;;;;;13.47;8.73;;;1.50;89.30;;;;;;5013932;28;20166;-83
2022/03/08 06:28:44;;;;;;;15.87;9.07;;;1.50;89.20;;;;;;5013807;28;20615;-85
2022/03/08 06:31:10;;;;;;;14.90;9.03;;;1.50;89.00;;;;;;5013640;28;20263;-83
2022/03/08 06:33:35;;;;;;;14.17;9.10;;;1.50;89.80;;;;;;5013294;28;20175;-84
2022/03/08 06:36:01;;;;;;;14.93;9.43;;;1.50;89.70;;;;;;5013724;28;20201;-85
2022/03/08 06:38:27;;;;;;;19.10;9.13;;;1.50;90.10;;;;;;5013782;28;20181;-84
2022/03/08 07:36:01;;;;;;;15.47;9.00;;;2.90;84.20;;;;;;5031889;28;20243;-90
2022/03/08 07:38:27;;;;;;;14.30;9.10;;;3.10;83.30;;;;;;5033167;28;20165;-92
2022/03/08 07:41:09;;;;;;;15.73;8.53;;;3.10;83.20;;;;;;5033014;28;20255;-93
2022/03/08 07:43:40;;;;;;;13.30;8.70;;;3.20;83.10;;;;;;5032947;28;20208;-93
2022/03/08 07:46:24;;;;;;;;;;;;;;;;;;;;;
2022/03/08 07:49:02;;;;;;;17.67;8.77;;;3.30;82.60;;;;;;5033954;28;20168;-93
2022/03/08 07:51:40;;;;;;;15.77;9.10;;;3.50;81.60;;;;;;5031960;28;20520;-93
2022/03/08 07:54:07;;;;;;;11.33;8.00;;;3.50;81.10;;;;;;5030834;28;20181;-92
2022/03/08 07:56:33;;;;;;;11.13;8.00;;;3.50;80.60;;;;;;5032583;28;20255;-93
2022/03/08 07:59:00;;;;;;;15.83;8.77;;;3.60;80.70;;;;;;5032581;28;20582;-92
2022/03/08 08:01:26;;;;;;;16.73;8.60;;;3.70;79.90;;;;;;5032007;28;20621;-93
2022/03/08 08:04:00;;;;;;;14.07;8.77;;;3.80;79.20;;;;;;5032602;28;20270;-93
2022/03/08 08:06:28;;;;;;;13.60;8.20;;;4.00;79.00;;;;;;5032122;28;20164;-93
2022/03/08 08:08:58;;;;;;;12.93;8.63;;;4.10;78.60;;;;;;5032909;28;20591;-93
2022/03/08 08:11:56;;;;;;;16.07;8.90;;;4.20;77.70;;;;;;5033239;28;20164;-94
2022/03/08 08:14:52;;;;;;;13.37;8.00;;;4.40;76.50;;;;;;5027906;28;20184;-94
2022/03/08 08:24:36;;;;;;;15.80;8.00;;;4.40;77.00;;;;;;5025778;28;20220;-94
2022/03/08 08:27:03;;;;;;;11.70;7.20;;;4.40;76.00;;;;;;5032643;28;20188;-93
2022/03/08 08:29:28;;;;;;;12.30;8.33;;;4.50;75.30;;;;;;5031861;28;20201;-93
2022/03/08 08:31:57;;;;;;;16.90;8.10;;;4.60;75.20;;;;;;5032241;28;20265;-93
2022/03/08 08:34:25;;;;;;;13.23;7.93;;;4.80;74.70;;;;;;5032877;28;20571;-94
2022/03/08 08:37:11;;;;;;;14.07;7.90;;;5.00;73.80;;;;;;5032050;28;20165;-93
2022/03/08 08:40:06;;;;;;;;;;;;;;;;;;;;;
2022/03/08 08:42:38;;;;;;;11.00;7.13;;;5.20;72.80;;;;;;5033573;28;20661;-94
2022/03/08 08:45:07;;;;;;;9.97;7.30;;;5.30;72.60;;;;;;5032416;28;20192;-94
2022/03/08 08:47:36;;;;;;;11.93;7.60;;;5.40;71.70;;;;;;5032339;28;20695;-93
2022/03/08 08:50:14;;;;;;;11.87;7.10;;;5.50;71.50;;;;;;5032340;28;20176;-93
2022/03/08 08:53:00;;;;;;;;;;;;;;;;;;;;;
2022/03/08 08:55:33;;;;;;;13.00;7.20;;;5.40;69.70;;;;;;5033584;28;20176;-94
2022/03/08 08:58:09;;;;;;;;;;;;;;;;;;;;;
2022/03/08 09:00:35;;;;;;;11.23;7.13;;;5.60;70.20;;;;;;5033720;28;20160;-94
2022/03/08 09:03:14;;;;;;;;;;;;;;;;;;;;;
2022/03/08 09:05:44;;;;;;;12.97;6.90;;;5.80;68.30;;;;;;5035919;28;20180;-93
2022/03/08 09:08:23;;;;;;;12.60;7.00;;;5.80;68.00;;;;;;5036231;28;20180;-93
2022/03/08 09:11:04;;;;;;;10.43;6.97;;;5.80;67.70;;;;;;5035577;28;20195;-93
2022/03/08 09:13:29;;;;;;;11.87;7.30;;;5.80;67.50;;;;;;5035725;28;20185;-92
2022/03/08 09:15:55;;;;;;;8.43;6.60;;;5.90;68.30;;;;;;5035483;28;20178;-91
2022/03/08 09:18:21;;;;;;;9.80;6.57;;;6.00;66.80;;;;;;5035535;28;20173;-91
2022/03/08 09:20:46;;;;;;;12.67;8.40;;;6.00;67.00;;;;;;5034633;28;20244;-92
2022/03/08 09:23:12;;;;;;;10.30;5.93;;;6.10;67.20;;;;;;5035035;28;20208;-88
2022/03/08 09:25:38;;;;;;;11.13;6.50;;;6.20;66.10;;;;;;5035072;28;20582;-93
2022/03/08 09:28:07;;;;;;;10.60;6.77;;;6.20;65.70;;;;;;5035285;28;20690;-91
2022/03/08 09:30:35;;;;;;;11.80;6.83;;;6.30;65.30;;;;;;5035446;28;20264;-90
2022/03/08 09:33:01;;;;;;;10.07;6.77;;;6.30;65.40;;;;;;5035005;28;20178;-92
2022/03/08 09:35:27;;;;;;;9.53;6.47;;;6.40;65.60;;;;;;5035011;28;20212;-89
2022/03/08 09:37:54;;;;;;;10.80;6.57;;;6.50;65.20;;;;;;5035214;28;20179;-88
2022/03/08 09:40:20;;;;;;;11.87;6.20;;;6.50;65.40;;;;;;5034597;28;20194;-90
2022/03/08 09:42:47;;;;;;;13.37;6.77;;;6.60;64.90;;;;;;5034919;28;20206;-90
2022/03/08 09:45:14;;;;;;;8.63;6.50;;;6.80;64.70;;;;;;5034577;28;20169;-92
2022/03/08 09:47:41;;;;;;;9.00;7.03;;;6.80;64.20;;;;;;5034574;28;20693;-89
2022/03/08 09:50:08;;;;;;;15.80;6.60;;;6.80;64.00;;;;;;5035141;28;20561;-91
2022/03/08 09:52:36;;;;;;;11.73;6.77;;;6.70;64.20;;;;;;5034003;28;20174;-90
2022/03/08 09:55:05;;;;;;;11.13;6.00;;;6.80;65.00;;;;;;5034688;28;20165;-92
2022/03/08 09:57:31;;;;;;;9.67;6.53;;;6.90;64.40;;;;;;5032753;28;20263;-92
2022/03/08 09:59:57;;;;;;;9.97;6.53;;;7.00;64.40;;;;;;5034723;28;20173;-88
2022/03/08 10:02:24;;;;;;;10.77;7.60;;;7.10;64.30;;;;;;5034634;28;20268;-90
2022/03/08 10:05:06;;;;;;;9.83;6.30;;;7.10;64.00;;;;;;5034716;28;20186;-89
2022/03/08 10:07:32;;;;;;;10.77;6.73;;;7.20;64.50;;;;;;5034651;28;20167;-91
2022/03/08 10:09:59;;;;;;;9.67;6.07;;;7.20;64.20;;;;;;5034450;28;20186;-90
2022/03/08 10:12:26;;;;;;;9.70;6.20;;;7.20;64.10;;;;;;5034587;28;20190;-91
2022/03/08 10:14:51;;;;;;;9.67;6.80;;;7.30;63.80;;;;;;5034568;28;20238;-89
2022/03/08 10:17:40;;;;;;;14.30;6.80;;;7.20;63.90;;;;;;5033982;28;20529;-89
2022/03/08 10:20:08;;;;;;;10.30;6.50;;;7.40;64.20;;;;;;5034667;28;20201;-89
2022/03/08 10:22:40;;;;;;;12.27;6.60;;;7.50;64.10;;;;;;5034186;28;20204;-90
2022/03/08 10:25:18;;;;;;;9.73;6.60;;;7.50;64.00;;;;;;5034472;28;20169;-91
2022/03/08 10:27:55;;;;;;;11.77;6.57;;;7.40;63.70;;;;;;5034178;28;20178;-91
2022/03/08 10:30:27;;;;;;;15.37;7.33;;;7.40;63.20;;;;;;5034280;28;20180;-90
2022/03/08 10:32:59;;;;;;;10.07;6.07;;;7.50;63.70;;;;;;5034074;28;20191;-90
2022/03/08 10:35:26;;;;;;;11.47;7.10;;;7.60;63.30;;;;;;5034001;28;20260;-90
2022/03/08 10:37:52;;;;;;;10.10;6.33;;;7.70;63.20;;;;;;5035018;28;20173;-89
2022/03/08 10:40:32;;;;;;;11.47;6.43;;;7.80;63.90;;;;;;5033773;28;20164;-90
2022/03/08 10:43:17;;;;;;;12.87;6.67;;;7.90;62.50;;;;;;5034259;28;20297;-91
2022/03/08 10:45:46;;;;;;;9.07;6.70;;;7.90;61.30;;;;;;5033843;28;20230;-91
2022/03/08 10:48:14;;;;;;;8.17;6.43;;;8.00;61.00;;;;;;5033904;28;20174;-91
2022/03/08 10:50:41;;;;;;;9.00;6.20;;;8.10;60.20;;;;;;5033835;28;20253;-91
2022/03/08 10:53:08;;;;;;;8.50;6.23;;;8.20;59.80;;;;;;5033597;28;20186;-90
2022/03/08 10:55:45;;;;;;;10.63;6.80;;;8.20;59.90;;;;;;5033909;28;20167;-90
2022/03/08 10:58:12;;;;;;;11.90;6.50;;;8.30;60.50;;;;;;5033800;28;20170;-90
2022/03/08 11:00:45;;;;;;;8.33;6.10;;;8.40;60.80;;;;;;5033814;28;20174;-90
2022/03/08 11:03:16;;;;;;;11.63;6.17;;;8.60;60.10;;;;;;5033457;28;20214;-87
2022/03/08 11:05:49;;;;;;;9.00;5.90;;;9.10;59.40;;;;;;5033648;28;20199;-89
2022/03/08 11:08:15;;;;;;;11.70;8.53;;;9.90;57.60;;;;;;5033284;28;20211;-91
2022/03/08 11:10:42;;;;;;;10.60;6.00;;;10.80;56.40;;;;;;5033616;28;20663;-90
2022/03/08 11:13:10;;;;;;;8.83;5.93;;;11.90;54.00;;;;;;5033460;28;20169;-88
2022/03/08 11:15:39;;;;;;;9.27;6.63;;;13.10;54.00;;;;;;5035473;28;20234;-90
2022/03/08 11:18:07;;;;;;;9.70;6.10;;;14.30;50.40;;;;;;5033908;28;20515;-90
2022/03/08 11:20:34;;;;;;;11.40;6.33;;;15.20;48.70;;;;;;5033373;28;20176;-91
2022/03/08 11:23:00;;;;;;;7.07;5.80;;;16.30;47.50;;;;;;5033196;28;20349;-90
2022/03/08 11:25:29;;;;;;;7.87;6.20;;;17.20;46.20;;;;;;5033014;28;20171;-91
2022/03/08 11:27:55;;;;;;;6.57;5.57;;;17.90;44.80;;;;;;5032612;28;20183;-90
2022/03/08 11:30:27;;;;;;;6.60;6.00;;;18.80;43.70;;;;;;5033031;28;20167;-90
2022/03/08 11:32:53;;;;;;;6.33;5.00;;;19.20;42.80;;;;;;5033359;28;20172;-90
2022/03/08 11:35:29;;;;;;;7.57;6.03;;;19.60;42.50;;;;;;5032900;28;20223;-90
2022/03/08 11:37:56;;;;;;;6.57;5.17;;;20.00;42.10;;;;;;5033155;28;20192;-87
2022/03/08 11:40:23;;;;;;;6.97;5.70;;;20.50;41.70;;;;;;5032916;28;20190;-90
2022/03/08 11:42:53;;;;;;;10.20;5.77;;;20.70;41.20;;;;;;5033152;28;20388;-89
2022/03/08 11:45:27;;;;;;;12.37;6.60;;;20.90;41.00;;;;;;5032513;28;20291;-89
2022/03/08 11:47:54;;;;;;;6.87;5.80;;;21.50;40.40;;;;;;5033098;28;20207;-90
2022/03/08 11:50:27;;;;;;;5.47;4.97;;;21.60;39.50;;;;;;5032831;28;20633;-90
2022/03/08 11:53:06;;;;;;;7.30;5.80;;;21.70;39.80;;;;;;5032509;28;20636;-90
2022/03/08 11:55:56;;;;;;;8.57;6.03;;;21.90;39.50;;;;;;5032592;28;20168;-91
2022/03/08 11:58:42;;;;;;;6.57;5.17;;;22.30;39.30;;;;;;5032803;28;20172;-90
2022/03/08 12:01:10;;;;;;;9.20;5.17;;;22.70;38.80;;;;;;5032879;28;20169;-90
2022/03/08 12:03:39;;;;;;;5.60;5.07;;;22.90;38.80;;;;;;5032696;28;20207;-91
2022/03/08 12:06:12;;;;;;;7.37;5.93;;;23.40;38.30;;;;;;5031893;28;20177;-91
2022/03/08 12:08:41;;;;;;;8.90;5.67;;;23.70;38.10;;;;;;5032796;28;20199;-91
2022/03/08 12:11:13;;;;;;;6.83;5.23;;;24.10;38.10;;;;;;5032546;28;20168;-90
2022/03/08 12:13:41;;;;;;;6.57;5.50;;;24.20;37.40;;;;;;5032340;28;20259;-89
2022/03/08 12:16:09;;;;;;;6.23;5.10;;;24.10;37.50;;;;;;5032331;28;20169;-91
2022/03/08 12:18:50;;;;;;;7.03;4.73;;;24.30;37.30;;;;;;5033397;28;20176;-92
2022/03/08 12:21:25;;;;;;;5.90;5.27;;;24.30;37.30;;;;;;5032199;28;20199;-91
2022/03/08 12:23:52;;;;;;;8.37;5.27;;;24.70;36.90;;;;;;5032292;28;20214;-90
2022/03/08 12:26:28;;;;;;;6.97;5.07;;;24.80;37.10;;;;;;5032366;28;20172;-91
2022/03/08 12:29:12;;;;;;;6.03;5.33;;;25.00;37.10;;;;;;5032418;28;20183;-92
2022/03/08 12:32:04;;;;;;;6.10;5.33;;;25.50;36.60;;;;;;5032238;28;20176;-91
2022/03/08 12:34:33;;;;;;;6.23;5.33;;;25.60;36.60;;;;;;5031612;28;20215;-91
2022/03/08 12:37:01;;;;;;;6.40;5.80;;;26.00;36.50;;;;;;5033268;28;20214;-91
2022/03/08 12:39:46;;;;;;;5.87;5.27;;;26.40;35.90;;;;;;5034080;28;20168;-91
2022/03/08 12:42:30;;;;;;;5.37;4.73;;;26.30;35.60;;;;;;5036207;28;20196;-92
2022/03/08 12:45:10;;;;;;;6.00;5.40;;;26.40;36.10;;;;;;5036306;28;20544;-91
2022/03/08 12:48:12;;;;;;;8.43;5.40;;;26.50;35.80;;;;;;5036568;28;20180;-91
2022/03/08 12:50:49;;;;;;;6.97;5.03;;;26.70;35.20;;;;;;5036663;28;20636;-91
2022/03/08 12:53:25;;;;;;;8.32;5.18;;;26.70;35.70;;;;;;5037321;28;20191;-91
2022/03/08 12:55:54;;;;;;;7.15;5.15;;;27.20;35.30;;;;;;5036743;28;20532;-90
2022/03/08 12:58:22;;;;;;;7.78;5.40;;;27.60;34.90;;;;;;5036201;28;20184;-90
2022/03/08 13:00:54;;;;;;;7.20;5.35;;;27.60;34.50;;;;;;5035960;28;20702;-91
2022/03/08 13:03:22;;;;;;;5.65;5.15;;;27.00;34.30;;;;;;5035503;28;20279;-91
2022/03/08 13:05:50;;;;;;;6.25;5.18;;;26.90;34.60;;;;;;5035604;28;20219;-91
2022/03/08 13:08:19;;;;;;;7.57;5.10;;;27.30;34.00;;;;;;5036080;28;20173;-91
2022/03/08 13:10:55;;;;;;;5.15;4.65;;;27.40;34.10;;;;;;5035808;28;20182;-89
2022/03/08 13:13:22;;;;;;;6.82;5.03;;;27.80;33.90;;;;;;5035844;28;20168;-91
2022/03/08 13:15:49;;;;;;;7.15;5.10;;;27.70;33.90;;;;;;5035379;28;20168;-91
2022/03/08 13:18:28;;;;;;;6.53;4.90;;;28.30;33.80;;;;;;5036556;28;20199;-92
2022/03/08 13:20:59;;;;;;;8.07;5.55;;;28.10;33.80;;;;;;5035404;28;20234;-91
2022/03/08 13:23:27;;;;;;;6.68;5.28;;;28.00;33.70;;;;;;5035577;28;20219;-91
2022/03/08 13:25:55;;;;;;;8.55;5.88;;;27.90;33.70;;;;;;5036528;28;20230;-91
2022/03/08 13:28:25;;;;;;;6.95;5.15;;;28.30;33.70;;;;;;5035394;28;20318;-91
2022/03/08 13:30:56;;;;;;;5.55;4.80;;;28.80;33.60;;;;;;5035206;28;20172;-92
2022/03/08 13:33:35;;;;;;;5.90;5.30;;;28.70;33.10;;;;;;5035083;28;20179;-92
2022/03/08 13:36:04;;;;;;;6.75;5.18;;;28.90;33.50;;;;;;5035349;28;20544;-91
2022/03/08 13:38:41;;;;;;;5.78;5.18;;;28.70;33.20;;;;;;5035459;28;20179;-91
2022/03/08 13:41:13;;;;;;;5.07;4.57;;;29.20;33.50;;;;;;5036351;28;20432;-92
2022/03/08 13:43:44;;;;;;;5.90;5.05;;;29.00;33.60;;;;;;5036170;28;20209;-91
2022/03/08 13:46:21;;;;;;;6.30;5.40;;;28.80;33.60;;;;;;5035415;28;20172;-91
2022/03/08 13:48:50;;;;;;;6.47;5.35;;;29.10;33.10;;;;;;5034862;28;20184;-91
2022/03/08 13:51:28;;;;;;;7.50;5.65;;;29.10;33.00;;;;;;5034509;28;20187;-90
2022/03/08 13:53:55;;;;;;;8.18;6.10;;;28.40;33.20;;;;;;5034977;28;20172;-92
2022/03/08 13:56:21;;;;;;;6.43;4.70;;;28.50;33.40;;;;;;5034914;28;20188;-92
2022/03/08 13:58:58;;;;;;;7.57;5.22;;;29.10;33.20;;;;;;5036063;28;20549;-92
2022/03/08 14:01:25;;;;;;;6.63;5.25;;;28.80;33.50;;;;;;5034514;28;20160;-92
2022/03/08 14:03:53;;;;;;;7.15;5.18;;;29.20;32.90;;;;;;5034767;28;20207;-92